createdAt,value
2023-03-05T00:02:17.101Z,15.13
2023-03-05T00:05:19.281Z,15.00
2023-03-05T00:08:21.400Z,15.21
2023-03-05T00:11:24.415Z,15.04
2023-03-05T00:14:26.373Z,15.19
2023-03-05T00:17:28.413Z,15.15
2023-03-05T00:20:30.456Z,15.13
2023-03-05T00:23:32.788Z,14.96
2023-03-05T00:26:37.713Z,15.01
2023-03-05T00:29:39.722Z,15.07
2023-03-05T00:32:42.629Z,14.99
2023-03-05T00:35:46.836Z,14.91
2023-03-05T00:38:49.728Z,14.89
2023-03-05T00:41:53.152Z,14.83
2023-03-05T00:44:56.296Z,14.76
2023-03-05T00:47:59.249Z,14.71
2023-03-05T00:51:01.848Z,14.80
2023-03-05T00:54:05.809Z,14.72
2023-03-05T00:57:07.961Z,14.61
2023-03-05T01:00:11.434Z,14.56
2023-03-05T01:03:13.516Z,14.53
2023-03-05T01:06:17.551Z,14.54
2023-03-05T01:09:19.886Z,14.38
2023-03-05T01:12:21.939Z,14.31
2023-03-05T01:15:25.930Z,14.31
2023-03-05T01:18:27.985Z,13.97
2023-03-05T01:21:30.668Z,14.22
2023-03-05T01:24:33.201Z,14.13
2023-03-05T01:27:37.186Z,14.13
2023-03-05T01:30:39.781Z,13.97
2023-03-05T01:33:42.134Z,13.89
2023-03-05T01:36:44.588Z,13.84
2023-03-05T01:39:47.294Z,13.71
2023-03-05T01:43:19.327Z,13.36
2023-03-05T01:46:37.712Z,13.24
2023-03-05T01:49:41.559Z,13.10
2023-03-05T01:52:49.861Z,13.18
2023-03-05T01:55:51.954Z,13.12
2023-03-05T01:58:58.031Z,13.17
2023-03-05T02:02:00.706Z,13.19
2023-03-05T02:05:10.905Z,13.14
2023-03-05T02:08:17.828Z,13.09
2023-03-05T02:11:21.098Z,13.08
2023-03-05T02:14:27.148Z,12.96
2023-03-05T02:17:29.434Z,12.83
2023-03-05T02:20:45.617Z,12.59
2023-03-05T02:23:47.647Z,12.53
2023-03-05T02:26:49.968Z,12.51
2023-03-05T02:29:52.626Z,12.62
2023-03-05T02:32:54.561Z,12.55
2023-03-05T02:35:57.332Z,12.51
2023-03-05T02:38:59.496Z,12.54
2023-03-05T02:42:01.898Z,12.67
2023-03-05T02:45:06.378Z,12.62
2023-03-05T02:48:08.655Z,12.72
2023-03-05T02:51:11.092Z,12.78
2023-03-05T02:54:13.257Z,12.73
2023-03-05T02:57:16.008Z,12.54
2023-03-05T03:00:18.459Z,12.51
2023-03-05T03:03:20.720Z,12.62
2023-03-05T03:06:23.065Z,12.33
2023-03-05T03:09:26.127Z,12.21
2023-03-05T03:12:28.282Z,12.37
2023-03-05T03:15:30.478Z,12.30
2023-03-05T03:18:32.634Z,12.27
2023-03-05T03:21:35.179Z,12.27
2023-03-05T03:24:39.825Z,12.23
2023-03-05T03:27:42.029Z,12.19
2023-03-05T03:30:44.197Z,12.50
2023-03-05T03:33:46.241Z,12.48
2023-03-05T03:36:50.260Z,12.38
2023-03-05T03:39:52.360Z,12.50
2023-03-05T03:42:54.822Z,12.52
2023-03-05T03:45:56.927Z,12.56
2023-03-05T03:48:59.059Z,12.23
2023-03-05T03:52:01.218Z,12.05
2023-03-05T03:55:03.383Z,11.92
2023-03-05T03:58:05.495Z,11.88
2023-03-05T04:01:07.486Z,11.92
2023-03-05T04:04:12.594Z,12.05
2023-03-05T04:07:14.706Z,11.94
2023-03-05T04:10:16.991Z,12.06
2023-03-05T04:13:19.021Z,11.96
2023-03-05T04:16:21.606Z,12.26
2023-03-05T04:19:23.589Z,12.25
2023-03-05T04:22:25.671Z,12.13
2023-03-05T04:25:27.696Z,12.09
2023-03-05T04:28:31.465Z,11.91
2023-03-05T04:31:33.511Z,12.09
2023-03-05T04:34:37.652Z,12.10
2023-03-05T04:37:39.668Z,11.80
2023-03-05T04:40:45.542Z,11.71
2023-03-05T04:43:47.503Z,11.84
2023-03-05T04:46:50.046Z,11.93
2023-03-05T04:49:52.155Z,11.91
2023-03-05T04:52:54.613Z,12.02
2023-03-05T04:55:57.050Z,11.93
2023-03-05T04:59:00.117Z,12.10
2023-03-05T05:02:02.296Z,12.25
2023-03-05T05:05:04.638Z,12.31
2023-03-05T05:08:06.781Z,12.26
2023-03-05T05:11:13.792Z,12.30
2023-03-05T05:14:16.101Z,12.28
2023-03-05T05:17:18.188Z,12.23
2023-03-05T05:20:20.337Z,12.19
2023-03-05T05:23:22.584Z,11.94
2023-03-05T05:26:24.608Z,11.94
2023-03-05T05:29:26.834Z,12.09
2023-03-05T05:32:28.943Z,12.12
2023-03-05T05:35:31.079Z,12.14
2023-03-05T05:38:34.070Z,12.33
2023-03-05T05:41:36.314Z,12.76
2023-03-05T05:44:38.411Z,13.45
2023-03-05T05:47:40.475Z,13.63
2023-03-05T05:50:42.480Z,13.52
2023-03-05T05:53:45.306Z,13.27
2023-03-05T05:56:47.363Z,13.25
2023-03-05T05:59:49.449Z,13.31
2023-03-05T06:02:51.497Z,13.51
2023-03-05T06:05:57.021Z,14.81
2023-03-05T06:08:59.090Z,16.10
2023-03-05T06:12:02.613Z,16.88
2023-03-05T06:15:05.356Z,17.58
2023-03-05T06:18:07.433Z,18.34
2023-03-05T06:21:14.122Z,18.75
2023-03-05T06:24:16.217Z,19.25
2023-03-05T06:27:18.387Z,18.12
2023-03-05T06:30:20.666Z,17.13
2023-03-05T06:33:22.877Z,16.78
2023-03-05T06:36:26.029Z,16.45
2023-03-05T06:39:28.110Z,16.38
2023-03-05T06:42:30.203Z,16.63
2023-03-05T06:45:32.207Z,16.52
2023-03-05T06:48:34.617Z,16.48
2023-03-05T06:51:39.466Z,16.44
2023-03-05T06:54:41.619Z,16.30
2023-03-05T06:57:43.857Z,16.25
2023-03-05T07:00:46.146Z,16.15
2023-03-05T07:03:53.257Z,16.14
2023-03-05T07:06:55.963Z,16.19
2023-03-05T07:09:57.954Z,16.24
2023-03-05T07:13:01.101Z,16.17
2023-03-05T07:16:08.805Z,16.16
2023-03-05T07:19:11.110Z,16.14
2023-03-05T07:22:13.050Z,16.02
2023-03-05T07:25:19.646Z,16.03
2023-03-05T07:28:23.988Z,15.91
2023-03-05T07:31:32.230Z,15.91
2023-03-05T07:34:34.505Z,15.79
2023-03-05T07:37:36.634Z,15.81
2023-03-05T07:40:38.727Z,15.68
2023-03-05T07:43:41.150Z,15.82
2023-03-05T07:46:43.708Z,15.89
2023-03-05T07:49:46.356Z,15.90
2023-03-05T07:52:49.387Z,15.88
2023-03-05T07:55:51.397Z,17.19
2023-03-05T07:58:54.857Z,19.15
2023-03-05T08:01:57.872Z,20.01
2023-03-05T08:05:02.606Z,20.02
2023-03-05T08:08:04.879Z,20.19
2023-03-05T08:11:10.043Z,20.78
2023-03-05T08:14:12.492Z,20.97
2023-03-05T08:17:14.736Z,20.42
2023-03-05T08:20:16.802Z,21.27
2023-03-05T08:23:18.829Z,21.50
2023-03-05T08:26:23.494Z,20.61
2023-03-05T08:29:27.097Z,21.29
2023-03-05T08:32:29.383Z,21.40
2023-03-05T08:35:31.566Z,21.48
2023-03-05T08:38:33.571Z,21.12
2023-03-05T08:41:36.571Z,21.52
2023-03-05T08:44:38.622Z,21.34
2023-03-05T08:47:40.813Z,20.96
2023-03-05T08:50:42.990Z,21.54
2023-03-05T08:53:46.193Z,21.65
2023-03-05T08:56:49.690Z,21.10
2023-03-05T08:59:51.749Z,21.57
2023-03-05T09:02:53.800Z,21.86
2023-03-05T09:06:00.779Z,21.71
2023-03-05T09:09:02.817Z,21.42
2023-03-05T09:12:04.983Z,21.72
2023-03-05T09:15:08.698Z,21.88
2023-03-05T09:18:10.647Z,21.32
2023-03-05T09:21:16.430Z,21.94
2023-03-05T09:24:18.425Z,21.94
2023-03-05T09:27:20.543Z,21.29
2023-03-05T09:30:22.661Z,21.64
2023-03-05T09:33:24.798Z,21.80
2023-03-05T09:36:30.289Z,22.02
2023-03-05T09:39:32.283Z,21.40
2023-03-05T09:42:59.068Z,21.94
2023-03-05T09:46:29.775Z,21.88
2023-03-05T09:50:00.192Z,21.56
2023-03-05T09:53:20.987Z,20.99
2023-03-05T09:56:39.078Z,19.65
2023-03-05T09:59:54.256Z,20.24
2023-03-05T10:03:01.094Z,20.56
2023-03-05T10:06:24.420Z,19.81
2023-03-05T10:09:26.564Z,20.38
2023-03-05T10:12:45.717Z,21.02
2023-03-05T10:16:13.952Z,20.53
2023-03-05T10:19:47.647Z,21.21
2023-03-05T10:23:01.510Z,20.24
2023-03-05T10:26:27.041Z,19.99
2023-03-05T10:29:35.261Z,20.93
2023-03-05T10:32:49.430Z,20.65
2023-03-05T10:36:11.454Z,20.18
2023-03-05T10:39:44.134Z,21.01
2023-03-05T10:42:48.924Z,20.75
2023-03-05T10:45:53.816Z,20.72
2023-03-05T10:49:02.779Z,21.14
2023-03-05T10:52:13.609Z,20.67
2023-03-05T10:55:18.346Z,21.37
2023-03-05T10:58:20.380Z,21.78
2023-03-05T11:01:29.160Z,21.22
2023-03-05T11:04:36.158Z,22.01
2023-03-05T11:07:40.396Z,22.29
2023-03-05T11:10:42.410Z,21.66
2023-03-05T11:14:02.638Z,22.19
2023-03-05T11:17:44.834Z,22.75
2023-03-05T11:20:47.553Z,22.20
2023-03-05T11:24:10.251Z,22.55
2023-03-05T11:27:38.561Z,20.97
2023-03-05T11:30:41.116Z,21.94
2023-03-05T11:34:01.295Z,22.34
2023-03-05T11:37:06.609Z,22.54
2023-03-05T11:40:11.693Z,22.39
2023-03-05T11:43:17.237Z,22.55
2023-03-05T11:46:20.557Z,22.74
2023-03-05T11:49:26.776Z,22.45
2023-03-05T11:52:32.365Z,20.93
2023-03-05T11:55:59.271Z,20.71
2023-03-05T11:59:13.696Z,21.76
2023-03-05T12:02:26.801Z,21.21
2023-03-05T12:05:30.171Z,20.89
2023-03-05T12:08:39.740Z,20.45
2023-03-05T12:11:43.342Z,20.34
2023-03-05T12:14:48.963Z,19.84
2023-03-05T12:18:04.994Z,19.04
2023-03-05T12:21:33.115Z,18.94
2023-03-05T12:24:37.805Z,19.02
2023-03-05T12:27:40.450Z,19.08
2023-03-05T12:30:42.447Z,19.09
2023-03-05T12:33:44.497Z,19.00
2023-03-05T12:36:46.507Z,18.98
2023-03-05T12:39:58.837Z,18.73
2023-03-05T12:43:03.317Z,18.51
2023-03-05T12:46:31.640Z,18.50
2023-03-05T12:49:41.526Z,18.34
2023-03-05T12:52:46.165Z,18.18
2023-03-05T12:56:19.339Z,18.03
2023-03-05T12:59:24.931Z,17.91
2023-03-05T13:02:32.152Z,17.99
2023-03-05T13:05:37.445Z,18.15
2023-03-05T13:08:39.569Z,18.13
2023-03-05T13:11:43.111Z,18.08
2023-03-05T13:14:56.251Z,17.98
2023-03-05T13:18:07.608Z,17.94
2023-03-05T13:21:30.922Z,17.80
2023-03-05T13:24:32.883Z,17.64
2023-03-05T13:27:35.995Z,17.51
2023-03-05T13:30:38.363Z,17.51
2023-03-05T13:33:41.148Z,17.39
2023-03-05T13:36:52.712Z,17.36
2023-03-05T13:40:15.750Z,17.33
2023-03-05T13:43:21.419Z,17.47
2023-03-05T13:46:36.622Z,17.39
2023-03-05T13:49:40.126Z,17.35
2023-03-05T13:52:42.823Z,17.31
2023-03-05T13:55:46.256Z,17.17
2023-03-05T13:58:53.553Z,17.09
2023-03-05T14:02:00.597Z,17.05
2023-03-05T14:05:02.825Z,16.96
2023-03-05T14:08:06.970Z,16.91
2023-03-05T14:11:17.745Z,16.83
2023-03-05T14:14:22.149Z,16.81
2023-03-05T14:17:39.271Z,16.69
2023-03-05T14:21:04.533Z,16.62
2023-03-05T14:24:14.188Z,16.34
2023-03-05T14:27:21.316Z,16.48
2023-03-05T14:30:25.985Z,16.45
2023-03-05T14:33:32.056Z,16.57
2023-03-05T14:36:34.435Z,16.60
2023-03-05T14:40:00.900Z,16.65
2023-03-05T14:43:04.306Z,16.53
2023-03-05T14:46:06.566Z,16.42
2023-03-05T14:49:09.148Z,16.67
2023-03-05T14:52:17.148Z,16.67
2023-03-05T14:55:24.184Z,16.70
2023-03-05T14:58:33.363Z,16.71
2023-03-05T15:01:37.638Z,16.61
2023-03-05T15:04:41.115Z,16.54
2023-03-05T15:07:44.458Z,16.68
2023-03-05T15:10:46.531Z,16.66
2023-03-05T15:13:57.262Z,16.53
2023-03-05T15:17:00.049Z,16.59
2023-03-05T15:20:06.356Z,16.52
2023-03-05T15:23:09.755Z,16.45
2023-03-05T15:26:15.026Z,16.41
2023-03-05T15:29:17.094Z,16.38
2023-03-05T15:32:19.272Z,16.28
2023-03-05T15:35:23.949Z,16.19
2023-03-05T15:38:26.605Z,16.12
2023-03-05T15:41:28.615Z,15.97
2023-03-05T15:44:30.666Z,15.84
2023-03-05T15:47:33.602Z,16.13
2023-03-05T15:50:36.138Z,16.39
2023-03-05T15:53:38.164Z,16.17
2023-03-05T15:56:41.999Z,16.01
2023-03-05T15:59:44.349Z,15.90
2023-03-05T16:02:46.353Z,16.38
2023-03-05T16:05:48.456Z,17.61
2023-03-05T16:08:55.144Z,18.42
2023-03-05T16:11:57.286Z,18.93
2023-03-05T16:14:59.510Z,19.16
2023-03-05T16:18:06.248Z,19.34
2023-03-05T16:21:08.620Z,19.55
2023-03-05T16:24:11.383Z,18.82
2023-03-05T16:27:13.853Z,17.36
2023-03-05T16:30:17.804Z,16.67
2023-03-05T16:33:19.794Z,16.19
2023-03-05T16:36:24.809Z,15.82
2023-03-05T16:39:27.612Z,15.82
2023-03-05T16:42:30.174Z,15.69
2023-03-05T16:45:32.278Z,15.71
2023-03-05T16:48:35.866Z,15.48
2023-03-05T16:51:37.936Z,15.57
2023-03-05T16:54:41.594Z,15.47
2023-03-05T16:57:46.507Z,15.54
2023-03-05T17:00:49.126Z,15.49
2023-03-05T17:03:52.672Z,15.68
2023-03-05T17:06:56.796Z,15.52
2023-03-05T17:09:58.935Z,15.71
2023-03-05T17:13:01.281Z,15.77
2023-03-05T17:16:04.654Z,15.78
2023-03-05T17:19:07.736Z,15.74
2023-03-05T17:22:11.769Z,15.71
2023-03-05T17:25:14.306Z,15.72
2023-03-05T17:28:16.927Z,15.79
2023-03-05T17:31:20.150Z,15.65
2023-03-05T17:34:33.248Z,15.69
2023-03-05T17:37:37.495Z,15.77
2023-03-05T17:40:40.172Z,15.76
2023-03-05T17:43:42.309Z,15.65
2023-03-05T17:46:45.457Z,15.59
2023-03-05T17:49:47.837Z,15.55
2023-03-05T17:52:49.854Z,15.63
2023-03-05T17:55:52.287Z,15.68
2023-03-05T17:58:54.732Z,15.82
2023-03-05T18:01:58.078Z,15.80
2023-03-05T18:05:01.384Z,15.92
2023-03-05T18:08:05.009Z,15.89
2023-03-05T18:11:07.006Z,16.04
2023-03-05T18:14:09.372Z,15.93
2023-03-05T18:17:11.552Z,15.67
2023-03-05T18:20:24.639Z,16.44
2023-03-05T18:23:26.843Z,17.13
2023-03-05T18:29:54.275Z,17.88
2023-03-05T18:32:59.265Z,17.89
2023-03-05T18:36:05.240Z,18.37
2023-03-05T18:39:07.461Z,18.00
2023-03-05T18:42:19.257Z,18.07
2023-03-05T18:45:22.997Z,18.12
2023-03-05T18:48:24.960Z,18.23
2023-03-05T18:51:28.611Z,18.30
2023-03-05T18:54:32.633Z,18.10
2023-03-05T18:57:34.848Z,18.00
2023-03-05T19:00:37.056Z,17.84
2023-03-05T19:03:39.331Z,17.73
2023-03-05T19:06:41.486Z,17.67
2023-03-05T19:09:55.781Z,17.70
2023-03-05T19:13:40.098Z,17.67
2023-03-05T19:16:44.314Z,17.48
2023-03-05T19:19:53.872Z,17.46
2023-03-05T19:22:56.005Z,17.26
2023-03-05T19:25:58.218Z,17.18
2023-03-05T19:29:05.886Z,17.08
2023-03-05T19:32:11.019Z,17.05
2023-03-05T19:35:17.315Z,17.16
2023-03-05T19:38:19.757Z,17.16
2023-03-05T19:41:24.675Z,17.14
2023-03-05T19:44:27.383Z,17.09
2023-03-05T19:47:29.480Z,16.96
2023-03-05T19:50:34.352Z,16.72
2023-03-05T19:53:36.673Z,16.74
2023-03-05T19:56:44.892Z,16.73
2023-03-05T19:59:47.416Z,16.46
2023-03-05T20:02:50.481Z,16.34
2023-03-05T20:05:52.594Z,16.25
2023-03-05T20:08:56.544Z,16.18
2023-03-05T20:12:00.764Z,16.19
2023-03-05T20:15:06.124Z,16.12
2023-03-05T20:18:09.932Z,16.16
2023-03-05T20:21:16.138Z,16.15
2023-03-05T20:24:19.672Z,16.10
2023-03-05T20:27:22.342Z,16.10
2023-03-05T20:30:25.767Z,16.31
2023-03-05T20:33:28.997Z,16.33
2023-03-05T20:36:32.349Z,16.35
2023-03-05T20:39:34.482Z,16.28
2023-03-05T20:42:37.417Z,16.28
2023-03-05T20:45:39.516Z,16.35
2023-03-05T20:48:41.615Z,16.08
2023-03-05T20:51:44.100Z,15.99
2023-03-05T20:54:47.897Z,15.89
2023-03-05T20:57:51.412Z,15.83
2023-03-05T21:00:53.493Z,15.92
2023-03-05T21:03:59.078Z,15.98
2023-03-05T21:07:02.326Z,15.97
2023-03-05T21:10:04.834Z,15.96
2023-03-05T21:13:07.175Z,15.97
2023-03-05T21:16:13.990Z,15.98
2023-03-05T21:19:17.709Z,15.91
2023-03-05T21:22:20.358Z,15.85
2023-03-05T21:25:29.742Z,15.89
2023-03-05T21:28:33.307Z,16.22
2023-03-05T21:31:37.679Z,16.21
2023-03-05T21:34:39.794Z,16.72
2023-03-05T21:37:42.662Z,16.74
2023-03-05T21:40:45.948Z,16.82
2023-03-05T21:43:48.191Z,16.90
2023-03-05T21:46:51.164Z,16.80
2023-03-05T21:49:53.196Z,16.57
2023-03-05T21:52:55.339Z,16.35
2023-03-05T21:56:24.180Z,16.45
2023-03-05T21:59:26.222Z,16.33
2023-03-05T22:02:28.964Z,16.22
2023-03-05T22:05:31.144Z,16.31
2023-03-05T22:08:33.250Z,16.29
2023-03-05T22:11:35.626Z,16.40
2023-03-05T22:14:38.076Z,16.09
2023-03-05T22:17:40.142Z,16.14
2023-03-05T22:20:43.008Z,16.09
2023-03-05T22:23:45.099Z,16.04
2023-03-05T22:26:47.193Z,15.82
2023-03-05T22:29:49.233Z,15.89
2023-03-05T22:32:51.217Z,15.82
2023-03-05T22:35:53.999Z,15.79
2023-03-05T22:38:56.063Z,15.73
2023-03-05T22:41:58.055Z,15.67
2023-03-05T22:45:00.388Z,15.63
2023-03-05T22:48:02.596Z,15.57
2023-03-05T22:51:05.029Z,15.59
2023-03-05T22:54:06.953Z,15.64
2023-03-05T22:57:09.027Z,15.65
2023-03-05T23:00:14.776Z,15.59
2023-03-05T23:03:16.917Z,15.62
2023-03-05T23:06:19.420Z,15.64
2023-03-05T23:09:22.454Z,15.67
2023-03-05T23:12:26.653Z,15.75
2023-03-05T23:15:31.786Z,15.72
2023-03-05T23:18:34.194Z,15.76
2023-03-05T23:21:36.263Z,15.65
2023-03-05T23:24:38.442Z,15.76
2023-03-05T23:27:41.131Z,15.69
2023-03-05T23:30:43.350Z,15.52
2023-03-05T23:33:45.578Z,15.53
2023-03-05T23:36:47.630Z,15.50
2023-03-05T23:39:49.627Z,15.44
2023-03-05T23:42:52.830Z,15.43
2023-03-05T23:45:55.270Z,15.43
2023-03-05T23:48:57.250Z,15.39
2023-03-05T23:51:59.279Z,15.41
2023-03-05T23:55:01.337Z,15.49
2023-03-05T23:58:03.884Z,15.45
